Mexico, Kentucky
Current Conditions -  °F | °C
As of 10:15 PM on Wednesday 28 Jan 2015 (Local Time) from K5M9 Reporting Station
Clear Clear  
Wind Chill: 35°   Ceiling: Unl
Heat Index: 42°   Visibility: 10mi
Dew Point: 28°   Wind: 10mph
Humidity: 60%   Direction: 170°S
Pressure: 30.02"   Gusts: 18mph
Location:  37.3359°N, 88.1049°W
Report Text: K5M9 290415Z AUTO 17009G16KT 10SM CLR 05/M02 A3002 RMK AO2 T00531020
Loading
Personal Weather Stations






























Interactive Weather Map New forecast layout! Learn more

10-Day Weather Forecast

Advertisements
Track Severe Weather on mobile